createdAt,value
2022-12-03T00:01:14.420Z,4.36
2022-12-03T00:03:41.137Z,4.35
2022-12-03T00:06:08.006Z,4.30
2022-12-03T00:08:34.616Z,4.12
2022-12-03T00:11:01.261Z,3.99
2022-12-03T00:13:27.982Z,4.12
2022-12-03T00:15:54.639Z,4.35
2022-12-03T00:18:21.401Z,4.25
2022-12-03T00:20:48.043Z,4.26
2022-12-03T00:23:14.705Z,4.29
2022-12-03T00:25:41.422Z,4.36
2022-12-03T00:28:09.330Z,4.23
2022-12-03T00:30:36.136Z,4.23
2022-12-03T00:33:02.820Z,4.26
2022-12-03T00:35:29.469Z,4.40
2022-12-03T00:37:56.182Z,4.23
2022-12-03T00:40:22.821Z,4.41
2022-12-03T00:42:49.516Z,4.37
2022-12-03T00:45:16.194Z,4.43
2022-12-03T00:47:42.757Z,4.37
2022-12-03T00:50:10.290Z,4.40
2022-12-03T00:52:36.976Z,4.32
2022-12-03T00:55:03.921Z,3.94
2022-12-03T00:57:30.587Z,4.12
2022-12-03T00:59:57.204Z,4.15
2022-12-03T01:02:24.038Z,4.16
2022-12-03T01:04:51.013Z,4.29
2022-12-03T01:07:18.022Z,4.17
2022-12-03T01:09:44.602Z,4.37
2022-12-03T01:12:12.100Z,4.38
2022-12-03T01:14:38.823Z,4.49
2022-12-03T01:17:05.558Z,4.53
2022-12-03T01:19:33.950Z,4.37
2022-12-03T01:22:00.536Z,4.40
2022-12-03T01:24:27.268Z,4.51
2022-12-03T01:26:55.817Z,4.33
2022-12-03T01:29:22.523Z,4.05
2022-12-03T01:32:07.495Z,4.11
2022-12-03T01:34:34.208Z,4.14
2022-12-03T01:37:00.896Z,4.21
2022-12-03T01:39:27.581Z,4.32
2022-12-03T01:41:54.276Z,4.56
2022-12-03T01:44:28.537Z,4.59
2022-12-03T01:46:56.385Z,4.15
2022-12-03T01:49:33.728Z,4.28
2022-12-03T01:52:00.406Z,4.41
2022-12-03T01:54:30.269Z,4.34
2022-12-03T01:56:56.913Z,4.67
2022-12-03T01:59:26.065Z,4.62
2022-12-03T02:01:52.721Z,4.34
2022-12-03T02:04:19.443Z,4.47
2022-12-03T02:06:46.193Z,4.28
2022-12-03T02:09:13.302Z,4.14
2022-12-03T02:11:44.681Z,3.86
2022-12-03T02:14:13.810Z,3.91
2022-12-03T02:16:41.064Z,4.06
2022-12-03T02:19:13.096Z,4.10
2022-12-03T02:21:48.588Z,3.97
2022-12-03T02:24:37.530Z,4.05
2022-12-03T02:27:04.242Z,3.97
2022-12-03T02:29:30.981Z,4.01
2022-12-03T02:31:57.596Z,3.34
2022-12-03T02:34:37.957Z,3.66
2022-12-03T02:37:04.897Z,3.79
2022-12-03T02:39:32.100Z,3.93
2022-12-03T02:42:17.211Z,3.99
2022-12-03T02:44:43.834Z,3.89
2022-12-03T02:47:10.523Z,3.78
2022-12-03T02:49:37.231Z,3.76
2022-12-03T02:52:03.914Z,3.85
2022-12-03T02:54:30.556Z,3.91
2022-12-03T02:56:57.234Z,3.97
2022-12-03T02:59:23.901Z,3.70
2022-12-03T03:01:50.526Z,3.76
2022-12-03T03:04:17.353Z,3.69
2022-12-03T03:06:43.957Z,3.92
2022-12-03T03:09:10.583Z,4.02
2022-12-03T03:11:37.276Z,3.99
2022-12-03T03:14:03.846Z,4.07
2022-12-03T03:16:30.686Z,4.06
2022-12-03T03:18:57.370Z,3.90
2022-12-03T03:21:24.072Z,4.03
2022-12-03T03:23:50.658Z,3.97
2022-12-03T03:26:17.357Z,3.85
2022-12-03T03:28:46.275Z,3.96
2022-12-03T03:31:14.171Z,4.01
2022-12-03T03:33:41.233Z,4.01
2022-12-03T03:36:08.156Z,3.93
2022-12-03T03:38:34.920Z,3.96
2022-12-03T03:41:02.165Z,3.98
2022-12-03T03:43:28.826Z,4.15
2022-12-03T03:45:55.519Z,4.07
2022-12-03T03:48:22.344Z,4.17
2022-12-03T03:50:49.568Z,4.12
2022-12-03T03:53:16.309Z,3.90
2022-12-03T03:55:42.914Z,3.84
2022-12-03T03:58:09.610Z,3.64
2022-12-03T04:00:36.609Z,3.79
2022-12-03T04:03:06.380Z,4.01
2022-12-03T04:05:33.170Z,3.96
2022-12-03T04:07:59.966Z,3.68
2022-12-03T04:10:45.141Z,3.79
2022-12-03T04:13:11.765Z,3.78
2022-12-03T04:15:38.462Z,3.85
2022-12-03T04:18:23.938Z,3.77
2022-12-03T04:20:50.641Z,3.72
2022-12-03T04:23:17.311Z,3.90
2022-12-03T04:26:19.425Z,4.05
2022-12-03T04:28:51.933Z,4.04
2022-12-03T04:31:37.326Z,3.85
2022-12-03T04:34:22.601Z,3.61
2022-12-03T04:36:49.214Z,3.10
2022-12-03T04:39:15.887Z,2.71
2022-12-03T04:41:42.574Z,2.52
2022-12-03T04:44:27.978Z,2.59
2022-12-03T04:46:54.664Z,2.76
2022-12-03T04:49:21.776Z,2.80
2022-12-03T04:51:48.432Z,3.00
2022-12-03T04:54:15.140Z,2.93
2022-12-03T04:56:41.798Z,3.15
2022-12-03T04:59:14.180Z,2.95
2022-12-03T05:01:42.620Z,2.70
2022-12-03T05:04:09.290Z,2.49
2022-12-03T05:06:35.949Z,2.55
2022-12-03T05:09:02.659Z,2.76
2022-12-03T05:11:29.321Z,2.86
2022-12-03T05:13:55.994Z,2.44
2022-12-03T05:16:22.731Z,2.37
2022-12-03T05:18:49.387Z,2.58
2022-12-03T05:21:16.030Z,2.80
2022-12-03T05:23:42.854Z,2.82
2022-12-03T05:26:09.801Z,2.93
2022-12-03T05:28:36.577Z,2.87
2022-12-03T05:31:03.319Z,2.63
2022-12-03T05:33:30.059Z,2.78
2022-12-03T05:35:56.678Z,2.91
2022-12-03T05:38:23.328Z,2.97
2022-12-03T05:40:49.917Z,2.91
2022-12-03T05:43:16.606Z,2.61
2022-12-03T05:45:43.573Z,2.49
2022-12-03T05:48:12.252Z,2.48
2022-12-03T05:50:39.851Z,2.46
2022-12-03T05:53:06.551Z,2.50
2022-12-03T05:55:33.225Z,2.85
2022-12-03T05:57:59.786Z,2.94
2022-12-03T06:00:28.360Z,2.89
2022-12-03T06:02:55.131Z,2.60
2022-12-03T06:05:22.164Z,2.14
2022-12-03T06:07:49.751Z,2.50
2022-12-03T06:10:20.863Z,2.59
2022-12-03T06:12:47.515Z,2.77
2022-12-03T06:15:15.220Z,2.76
2022-12-03T06:17:41.936Z,2.70
2022-12-03T06:20:09.036Z,2.55
2022-12-03T06:22:35.776Z,2.65
2022-12-03T06:25:06.800Z,2.94
2022-12-03T06:27:34.223Z,2.92
2022-12-03T06:30:00.805Z,2.67
2022-12-03T06:32:27.496Z,2.64
2022-12-03T06:34:54.377Z,3.00
2022-12-03T06:37:21.177Z,3.02
2022-12-03T06:39:47.744Z,2.91
2022-12-03T06:42:14.462Z,3.06
2022-12-03T06:44:41.198Z,3.10
2022-12-03T06:47:07.806Z,3.16
2022-12-03T06:49:34.748Z,3.10
2022-12-03T06:52:01.348Z,2.89
2022-12-03T06:54:28.077Z,2.88
2022-12-03T06:56:54.745Z,2.95
2022-12-03T06:59:21.462Z,3.09
2022-12-03T07:01:48.162Z,2.98
2022-12-03T07:04:14.876Z,3.04
2022-12-03T07:06:41.496Z,3.08
2022-12-03T07:09:08.223Z,3.03
2022-12-03T07:11:40.554Z,3.14
2022-12-03T07:14:08.069Z,3.10
2022-12-03T07:16:35.684Z,2.99
2022-12-03T07:19:03.146Z,3.10
2022-12-03T07:21:29.886Z,2.84
2022-12-03T07:23:56.752Z,3.01
2022-12-03T07:26:23.442Z,3.02
2022-12-03T07:28:50.077Z,3.09
2022-12-03T07:31:16.755Z,3.24
2022-12-03T07:33:43.426Z,3.19
2022-12-03T07:36:10.324Z,3.13
2022-12-03T07:38:37.116Z,3.20
2022-12-03T07:41:03.788Z,3.18
2022-12-03T07:43:30.391Z,3.29
2022-12-03T07:45:57.030Z,3.41
2022-12-03T07:48:23.749Z,3.40
2022-12-03T07:50:50.446Z,3.43
2022-12-03T07:53:17.178Z,3.54
2022-12-03T07:55:43.770Z,3.35
2022-12-03T07:58:10.454Z,3.26
2022-12-03T08:00:37.146Z,3.44
2022-12-03T08:03:03.761Z,3.69
2022-12-03T08:05:30.474Z,3.42
2022-12-03T08:07:57.203Z,3.47
2022-12-03T08:10:24.271Z,3.64
2022-12-03T08:12:51.017Z,3.60
2022-12-03T08:15:24.017Z,3.47
2022-12-03T08:17:56.690Z,3.89
2022-12-03T08:20:25.054Z,3.84
2022-12-03T08:22:52.606Z,3.88
2022-12-03T08:25:27.408Z,3.99
2022-12-03T08:28:15.725Z,4.00
2022-12-03T08:30:43.190Z,4.13
2022-12-03T08:33:18.648Z,4.17
2022-12-03T08:35:49.725Z,4.16
2022-12-03T08:38:16.674Z,3.95
2022-12-03T08:40:43.998Z,4.13
2022-12-03T08:43:26.186Z,4.06
2022-12-03T08:45:56.593Z,4.05
2022-12-03T08:48:36.821Z,4.10
2022-12-03T08:51:13.373Z,3.97
2022-12-03T08:53:50.254Z,4.15
2022-12-03T08:56:23.641Z,4.31
2022-12-03T08:58:54.022Z,4.20
2022-12-03T09:01:39.262Z,4.16
2022-12-03T09:04:34.768Z,4.32
2022-12-03T09:07:01.480Z,4.54
2022-12-03T09:09:28.157Z,4.42
2022-12-03T09:11:54.853Z,4.23
2022-12-03T09:14:22.701Z,4.05
2022-12-03T09:16:55.683Z,4.04
2022-12-03T09:19:26.576Z,4.17
2022-12-03T09:21:53.877Z,4.18
2022-12-03T09:24:20.703Z,4.10
2022-12-03T09:26:47.415Z,4.07
2022-12-03T09:29:14.311Z,4.34
2022-12-03T09:31:41.215Z,4.58
2022-12-03T09:34:07.917Z,4.80
2022-12-03T09:36:34.696Z,4.82
2022-12-03T09:39:01.352Z,4.96
2022-12-03T09:41:28.101Z,5.11
2022-12-03T09:44:17.214Z,5.20
2022-12-03T09:46:41.490Z,5.40
2022-12-03T09:49:15.294Z,5.34
2022-12-03T09:51:42.606Z,5.40
2022-12-03T09:54:10.305Z,5.65
2022-12-03T09:56:37.652Z,5.61
2022-12-03T09:59:13.507Z,5.67
2022-12-03T10:01:40.323Z,5.75
2022-12-03T10:04:07.168Z,5.61
2022-12-03T10:06:33.925Z,5.91
2022-12-03T10:09:00.628Z,6.05
2022-12-03T10:11:27.470Z,5.91
2022-12-03T10:13:54.154Z,6.05
2022-12-03T10:16:21.161Z,5.90
2022-12-03T10:18:52.510Z,6.03
2022-12-03T10:21:19.202Z,5.90
2022-12-03T10:23:48.460Z,6.13
2022-12-03T10:26:17.443Z,6.04
2022-12-03T10:28:46.856Z,6.11
2022-12-03T10:31:14.006Z,5.93
2022-12-03T10:33:44.688Z,6.15
2022-12-03T10:36:18.949Z,6.35
2022-12-03T10:38:45.766Z,6.06
2022-12-03T10:41:27.572Z,6.00
2022-12-03T10:43:54.203Z,6.28
2022-12-03T10:46:21.698Z,5.98
2022-12-03T10:49:07.628Z,5.71
2022-12-03T10:51:34.297Z,5.77
2022-12-03T10:54:01.428Z,5.82
2022-12-03T10:56:28.042Z,6.26
2022-12-03T10:58:54.726Z,6.38
2022-12-03T11:01:22.508Z,6.47
2022-12-03T11:03:49.299Z,6.46
2022-12-03T11:06:17.934Z,6.17
2022-12-03T11:08:46.810Z,6.25
2022-12-03T11:11:20.489Z,5.98
2022-12-03T11:13:49.554Z,6.06
2022-12-03T11:16:42.034Z,6.52
2022-12-03T11:19:17.517Z,6.46
2022-12-03T11:22:05.756Z,6.46
2022-12-03T11:24:36.171Z,6.68
2022-12-03T11:27:02.808Z,6.83
2022-12-03T11:29:52.878Z,6.75
2022-12-03T11:32:40.414Z,6.84
2022-12-03T11:35:16.672Z,6.93
2022-12-03T11:37:43.245Z,7.01
2022-12-03T11:40:19.073Z,7.11
2022-12-03T11:42:46.841Z,7.01
2022-12-03T11:45:39.442Z,6.94
2022-12-03T11:48:14.058Z,6.99
2022-12-03T11:50:51.214Z,6.99
2022-12-03T11:53:26.020Z,7.08
2022-12-03T11:56:06.132Z,7.11
2022-12-03T11:58:33.148Z,7.10
2022-12-03T12:01:01.408Z,6.98
2022-12-03T12:03:33.350Z,6.89
2022-12-03T12:06:07.363Z,6.93
2022-12-03T12:08:35.291Z,7.12
2022-12-03T12:11:02.240Z,6.92
2022-12-03T12:13:28.800Z,6.80
2022-12-03T12:15:55.564Z,7.03
2022-12-03T12:18:52.417Z,6.90
2022-12-03T12:21:50.073Z,6.85
2022-12-03T12:24:43.220Z,6.90
2022-12-03T12:27:11.926Z,6.96
2022-12-03T12:29:39.547Z,6.94
2022-12-03T12:32:09.085Z,6.77
2022-12-03T12:34:49.070Z,6.91
2022-12-03T12:37:21.291Z,6.80
2022-12-03T12:39:48.262Z,6.83
2022-12-03T12:42:27.480Z,6.82
2022-12-03T12:44:54.947Z,6.72
2022-12-03T12:47:21.735Z,6.69
2022-12-03T12:49:51.906Z,6.73
2022-12-03T12:52:18.803Z,6.63
2022-12-03T12:54:45.416Z,6.74
2022-12-03T12:57:13.326Z,6.80
2022-12-03T12:59:40.060Z,6.53
2022-12-03T13:02:26.591Z,6.81
2022-12-03T13:04:53.279Z,6.75
2022-12-03T13:07:19.934Z,6.76
2022-12-03T13:09:46.563Z,6.78
2022-12-03T13:12:19.843Z,6.68
2022-12-03T13:14:46.541Z,6.51
2022-12-03T13:17:15.540Z,6.60
2022-12-03T13:19:48.314Z,6.71
2022-12-03T13:22:21.647Z,6.63
2022-12-03T13:24:48.781Z,6.59
2022-12-03T13:27:18.567Z,6.62
2022-12-03T13:29:54.862Z,6.56
2022-12-03T13:32:34.430Z,6.52
2022-12-03T13:35:08.015Z,6.57
2022-12-03T13:37:34.674Z,6.60
2022-12-03T13:40:12.385Z,6.76
2022-12-03T13:42:39.316Z,6.54
2022-12-03T13:45:14.943Z,6.66
2022-12-03T13:47:42.497Z,6.70
2022-12-03T13:50:30.150Z,6.68
2022-12-03T13:52:56.959Z,6.80
2022-12-03T13:55:28.432Z,6.75
2022-12-03T13:57:55.097Z,6.69
2022-12-03T14:00:21.929Z,6.69
2022-12-03T14:02:48.769Z,6.50
2022-12-03T14:05:15.648Z,6.59
2022-12-03T14:07:42.666Z,6.61
2022-12-03T14:10:09.846Z,6.63
2022-12-03T14:12:37.098Z,6.52
2022-12-03T14:15:04.793Z,6.57
2022-12-03T14:17:31.598Z,6.54
2022-12-03T14:20:01.037Z,6.64
2022-12-03T14:22:27.990Z,6.35
2022-12-03T14:24:54.739Z,6.50
2022-12-03T14:27:21.525Z,6.57
2022-12-03T14:29:48.101Z,6.54
2022-12-03T14:32:14.885Z,6.37
2022-12-03T14:34:41.694Z,6.28
2022-12-03T14:37:08.301Z,6.28
2022-12-03T14:39:35.052Z,6.14
2022-12-03T14:42:13.896Z,6.24
2022-12-03T14:44:45.605Z,6.27
2022-12-03T14:47:12.429Z,6.32
2022-12-03T14:49:39.069Z,6.39
2022-12-03T14:52:08.578Z,6.07
2022-12-03T14:54:39.216Z,6.13
2022-12-03T14:57:05.928Z,6.18
2022-12-03T14:59:32.713Z,6.14
2022-12-03T15:01:59.454Z,6.16
2022-12-03T15:04:26.276Z,6.14
2022-12-03T15:06:52.949Z,6.25
2022-12-03T15:09:20.449Z,6.40
2022-12-03T15:11:47.133Z,6.11
2022-12-03T15:14:13.896Z,6.24
2022-12-03T15:16:40.768Z,6.32
2022-12-03T15:19:07.544Z,6.28
2022-12-03T15:21:35.038Z,6.05
2022-12-03T15:24:02.327Z,6.24
2022-12-03T15:26:29.005Z,6.22
2022-12-03T15:28:55.776Z,6.04
2022-12-03T15:31:22.446Z,6.14
2022-12-03T15:33:49.141Z,6.16
2022-12-03T15:36:15.822Z,6.08
2022-12-03T15:38:42.449Z,6.22
2022-12-03T15:41:21.530Z,6.16
2022-12-03T15:43:48.758Z,6.02
2022-12-03T15:46:15.541Z,6.05
2022-12-03T15:48:42.474Z,6.26
2022-12-03T15:51:09.197Z,6.22
2022-12-03T15:53:35.912Z,6.05
2022-12-03T15:56:02.629Z,5.94
2022-12-03T15:58:29.254Z,5.90
2022-12-03T16:00:55.975Z,5.96
2022-12-03T16:03:22.806Z,5.86
2022-12-03T16:05:49.419Z,5.74
2022-12-03T16:08:16.267Z,5.81
2022-12-03T16:10:42.938Z,5.84
2022-12-03T16:13:09.583Z,5.68
2022-12-03T16:15:36.373Z,5.87
2022-12-03T16:18:03.051Z,6.02
2022-12-03T16:20:29.734Z,6.00
2022-12-03T16:22:56.400Z,5.89
2022-12-03T16:25:23.078Z,5.79
2022-12-03T16:27:49.782Z,5.95
2022-12-03T16:30:16.707Z,5.79
2022-12-03T16:32:43.349Z,5.85
2022-12-03T16:35:10.032Z,5.88
2022-12-03T16:37:36.757Z,5.82
2022-12-03T16:40:03.794Z,5.82
2022-12-03T16:42:30.494Z,5.73
2022-12-03T16:45:03.336Z,5.91
2022-12-03T16:47:33.775Z,5.92
2022-12-03T16:50:01.809Z,6.00
2022-12-03T16:52:28.548Z,5.91
2022-12-03T16:54:55.393Z,6.04
2022-12-03T16:57:22.053Z,5.93
2022-12-03T16:59:48.682Z,5.77
2022-12-03T17:02:15.573Z,5.90
2022-12-03T17:04:42.278Z,5.89
2022-12-03T17:07:08.953Z,5.99
2022-12-03T17:09:35.638Z,5.89
2022-12-03T17:12:02.280Z,5.72
2022-12-03T17:14:33.185Z,5.77
2022-12-03T17:17:00.259Z,5.79
2022-12-03T17:19:26.954Z,5.79
2022-12-03T17:21:54.244Z,5.77
2022-12-03T17:24:21.575Z,5.67
2022-12-03T17:26:48.351Z,5.60
2022-12-03T17:29:15.114Z,5.69
2022-12-03T17:31:42.781Z,5.55
2022-12-03T17:34:09.965Z,5.56
2022-12-03T17:36:36.566Z,5.57
2022-12-03T17:39:03.334Z,5.62
2022-12-03T17:41:29.992Z,5.65
2022-12-03T17:43:56.640Z,5.41
2022-12-03T17:46:23.460Z,5.60
2022-12-03T17:48:50.183Z,5.80
2022-12-03T17:51:16.934Z,5.65
2022-12-03T17:53:43.591Z,5.57
2022-12-03T17:56:10.215Z,5.51
2022-12-03T17:58:36.833Z,5.64
2022-12-03T18:01:03.972Z,5.73
2022-12-03T18:03:30.990Z,5.53
2022-12-03T18:05:57.630Z,5.59
2022-12-03T18:08:24.391Z,5.65
2022-12-03T18:10:51.053Z,5.60
2022-12-03T18:13:17.744Z,5.61
2022-12-03T18:15:44.420Z,5.53
2022-12-03T18:18:11.298Z,5.79
2022-12-03T18:20:38.072Z,5.78
2022-12-03T18:23:04.785Z,5.75
2022-12-03T18:25:31.586Z,5.70
2022-12-03T18:27:58.215Z,5.57
2022-12-03T18:30:24.968Z,5.57
2022-12-03T18:32:51.598Z,5.73
2022-12-03T18:35:18.326Z,5.64
2022-12-03T18:37:44.989Z,5.63
2022-12-03T18:40:24.088Z,5.71
2022-12-03T18:42:50.907Z,5.59
2022-12-03T18:45:17.671Z,5.51
2022-12-03T18:47:44.541Z,5.60
2022-12-03T18:50:11.577Z,5.37
2022-12-03T18:52:38.338Z,5.17
2022-12-03T18:55:05.654Z,5.37
2022-12-03T18:57:32.809Z,5.35
2022-12-03T18:59:59.522Z,5.29
2022-12-03T19:02:54.347Z,5.41
2022-12-03T19:05:12.938Z,5.40
2022-12-03T19:07:39.706Z,5.44
2022-12-03T19:10:07.050Z,5.39
2022-12-03T19:12:33.795Z,5.55
2022-12-03T19:15:00.461Z,5.39
2022-12-03T19:17:27.526Z,5.17
2022-12-03T19:19:54.828Z,5.29
2022-12-03T19:22:21.989Z,5.17
2022-12-03T19:24:48.660Z,5.32
2022-12-03T19:27:15.274Z,5.49
2022-12-03T19:29:41.941Z,5.58
2022-12-03T19:32:09.061Z,5.59
2022-12-03T19:34:35.869Z,5.64
2022-12-03T19:37:02.582Z,5.50
2022-12-03T19:39:29.317Z,5.47
2022-12-03T19:41:55.959Z,5.54
2022-12-03T19:44:22.586Z,5.61
2022-12-03T19:46:49.561Z,5.55
2022-12-03T19:49:21.076Z,5.78
2022-12-03T19:51:47.719Z,5.76
2022-12-03T19:54:14.398Z,5.60
2022-12-03T19:56:41.079Z,5.71
2022-12-03T19:59:08.034Z,5.61
2022-12-03T20:01:35.610Z,5.66
2022-12-03T20:04:02.868Z,5.67
2022-12-03T20:06:30.975Z,5.83
2022-12-03T20:08:58.644Z,5.65
2022-12-03T20:11:27.152Z,5.69
2022-12-03T20:13:55.285Z,5.80
2022-12-03T20:16:22.158Z,5.83
2022-12-03T20:18:49.206Z,5.79
2022-12-03T20:21:16.832Z,5.48
2022-12-03T20:23:43.544Z,5.45
2022-12-03T20:26:12.409Z,5.35
2022-12-03T20:28:39.184Z,5.45
2022-12-03T20:31:10.676Z,5.64
2022-12-03T20:33:43.099Z,5.56
2022-12-03T20:36:10.231Z,5.48
2022-12-03T20:38:37.226Z,5.61
2022-12-03T20:41:05.119Z,5.61
2022-12-03T20:43:31.832Z,5.46
2022-12-03T20:46:12.761Z,5.60
2022-12-03T20:48:39.992Z,5.47
2022-12-03T20:51:07.819Z,5.56
2022-12-03T20:53:34.777Z,5.50
2022-12-03T20:56:01.625Z,5.56
2022-12-03T20:58:28.875Z,5.59
2022-12-03T21:00:55.753Z,5.47
2022-12-03T21:03:22.512Z,5.44
2022-12-03T21:05:49.556Z,5.54
2022-12-03T21:08:27.935Z,5.70
2022-12-03T21:11:06.111Z,5.60
2022-12-03T21:13:32.878Z,5.67
2022-12-03T21:16:04.682Z,5.95
2022-12-03T21:18:31.485Z,5.73
2022-12-03T21:20:59.385Z,5.78
2022-12-03T21:23:26.161Z,5.72
2022-12-03T21:25:52.774Z,5.67
2022-12-03T21:28:19.504Z,5.78
2022-12-03T21:30:46.299Z,5.68
2022-12-03T21:33:12.930Z,5.68
2022-12-03T21:35:39.727Z,5.58
2022-12-03T21:38:06.356Z,5.64
2022-12-03T21:40:33.067Z,5.71
2022-12-03T21:42:59.772Z,5.64
2022-12-03T21:45:26.435Z,5.62
2022-12-03T21:47:53.201Z,5.76
2022-12-03T21:50:20.346Z,5.73
2022-12-03T21:52:46.987Z,5.68
2022-12-03T21:55:13.692Z,5.68
2022-12-03T21:57:40.419Z,6.01
2022-12-03T22:00:07.894Z,5.97
2022-12-03T22:02:34.778Z,5.76
2022-12-03T22:05:01.546Z,5.62
2022-12-03T22:07:28.230Z,5.64
2022-12-03T22:09:55.097Z,5.74
2022-12-03T22:12:22.032Z,5.68
2022-12-03T22:14:48.709Z,5.60
2022-12-03T22:17:15.397Z,5.67
2022-12-03T22:19:42.348Z,5.67
2022-12-03T22:22:08.947Z,5.63
2022-12-03T22:24:35.659Z,5.76
2022-12-03T22:27:04.053Z,5.74
2022-12-03T22:29:31.129Z,5.60
2022-12-03T22:31:57.702Z,5.51
2022-12-03T22:34:24.507Z,5.60
2022-12-03T22:36:51.194Z,5.66
2022-12-03T22:39:17.933Z,5.50
2022-12-03T22:41:44.661Z,5.42
2022-12-03T22:44:11.479Z,5.42
2022-12-03T22:46:38.210Z,5.41
2022-12-03T22:49:07.451Z,5.49
2022-12-03T22:51:34.406Z,5.35
2022-12-03T22:54:01.318Z,5.49
2022-12-03T22:56:28.780Z,5.41
2022-12-03T22:58:55.473Z,5.38
2022-12-03T23:01:29.955Z,5.57
2022-12-03T23:03:56.803Z,5.66
2022-12-03T23:06:23.596Z,5.78
2022-12-03T23:08:50.536Z,5.66
2022-12-03T23:11:17.308Z,5.64
2022-12-03T23:13:43.936Z,5.46
2022-12-03T23:16:18.823Z,5.38
2022-12-03T23:18:45.610Z,5.45
2022-12-03T23:21:28.978Z,5.44
2022-12-03T23:23:56.607Z,5.40
2022-12-03T23:26:23.267Z,5.29
2022-12-03T23:28:50.246Z,5.36
2022-12-03T23:31:20.747Z,5.43
2022-12-03T23:33:47.431Z,5.31
2022-12-03T23:36:14.138Z,5.42
2022-12-03T23:38:40.841Z,5.55
2022-12-03T23:41:08.721Z,5.47
2022-12-03T23:43:35.460Z,5.41
2022-12-03T23:46:03.952Z,5.49
2022-12-03T23:48:30.865Z,5.56
2022-12-03T23:50:57.594Z,5.57
2022-12-03T23:53:24.306Z,5.49
2022-12-03T23:55:50.906Z,5.36
2022-12-03T23:58:17.645Z,5.29
